sensor_id;sensor_type;location;lat;lon;timestamp;temperature;humidity
59146;DHT22;44928;53.074;6.646;2022-11-27T00:01:43;6.60;99.90
59146;DHT22;44928;53.074;6.646;2022-11-27T00:04:10;6.60;99.90
59146;DHT22;44928;53.074;6.646;2022-11-27T00:06:38;6.60;99.90
59146;DHT22;44928;53.074;6.646;2022-11-27T00:09:06;6.50;99.90
59146;DHT22;44928;53.074;6.646;2022-11-27T00:11:33;6.50;99.90
59146;DHT22;44928;53.074;6.646;2022-11-27T00:13:59;6.50;99.90
59146;DHT22;44928;53.074;6.646;2022-11-27T00:16:26;6.50;99.90
59146;DHT22;44928;53.074;6.646;2022-11-27T00:18:52;6.50;99.90
59146;DHT22;44928;53.074;6.646;2022-11-27T00:21:21;6.50;99.90
59146;DHT22;44928;53.074;6.646;2022-11-27T00:23:47;6.50;99.90
59146;DHT22;44928;53.074;6.646;2022-11-27T00:26:13;6.50;99.90
59146;DHT22;44928;53.074;6.646;2022-11-27T00:28:40;6.50;99.90
59146;DHT22;44928;53.074;6.646;2022-11-27T00:31:15;6.50;99.90
59146;DHT22;44928;53.074;6.646;2022-11-27T00:33:41;6.50;99.90
59146;DHT22;44928;53.074;6.646;2022-11-27T00:36:07;6.50;99.90
59146;DHT22;44928;53.074;6.646;2022-11-27T00:38:34;6.50;99.90
59146;DHT22;44928;53.074;6.646;2022-11-27T00:41:07;6.50;99.90
59146;DHT22;44928;53.074;6.646;2022-11-27T00:43:35;6.40;99.90
59146;DHT22;44928;53.074;6.646;2022-11-27T00:46:01;6.40;99.90
59146;DHT22;44928;53.074;6.646;2022-11-27T00:48:27;6.40;99.90
59146;DHT22;44928;53.074;6.646;2022-11-27T00:50:59;6.40;99.90
59146;DHT22;44928;53.074;6.646;2022-11-27T00:53:25;6.40;99.90
59146;DHT22;44928;53.074;6.646;2022-11-27T00:55:51;6.40;99.90
59146;DHT22;44928;53.074;6.646;2022-11-27T00:58:16;6.40;99.90
59146;DHT22;44928;53.074;6.646;2022-11-27T01:00:42;6.30;99.90
59146;DHT22;44928;53.074;6.646;2022-11-27T01:03:08;6.30;99.90
59146;DHT22;44928;53.074;6.646;2022-11-27T01:05:36;6.30;99.90
59146;DHT22;44928;53.074;6.646;2022-11-27T01:08:02;6.30;99.90
59146;DHT22;44928;53.074;6.646;2022-11-27T01:10:28;6.30;99.90
59146;DHT22;44928;53.074;6.646;2022-11-27T01:12:54;6.30;99.90
59146;DHT22;44928;53.074;6.646;2022-11-27T01:15:20;6.30;99.90
59146;DHT22;44928;53.074;6.646;2022-11-27T01:17:46;6.30;99.90
59146;DHT22;44928;53.074;6.646;2022-11-27T01:20:11;6.30;99.90
59146;DHT22;44928;53.074;6.646;2022-11-27T01:22:37;6.20;99.90
59146;DHT22;44928;53.074;6.646;2022-11-27T01:25:03;6.20;99.90
59146;DHT22;44928;53.074;6.646;2022-11-27T01:27:29;6.20;99.90
59146;DHT22;44928;53.074;6.646;2022-11-27T01:29:55;6.20;99.90
59146;DHT22;44928;53.074;6.646;2022-11-27T01:32:21;6.20;99.90
59146;DHT22;44928;53.074;6.646;2022-11-27T01:34:46;6.20;99.90
59146;DHT22;44928;53.074;6.646;2022-11-27T01:37:12;6.20;99.90
59146;DHT22;44928;53.074;6.646;2022-11-27T01:39:38;6.20;99.90
59146;DHT22;44928;53.074;6.646;2022-11-27T01:42:04;6.10;99.90
59146;DHT22;44928;53.074;6.646;2022-11-27T01:47:10;6.20;99.90
59146;DHT22;44928;53.074;6.646;2022-11-27T01:49:40;6.10;99.90
59146;DHT22;44928;53.074;6.646;2022-11-27T01:54:49;6.10;99.90
59146;DHT22;44928;53.074;6.646;2022-11-27T01:57:22;6.10;99.90
59146;DHT22;44928;53.074;6.646;2022-11-27T01:59:50;6.00;99.90
59146;DHT22;44928;53.074;6.646;2022-11-27T02:02:17;6.00;99.90
59146;DHT22;44928;53.074;6.646;2022-11-27T02:04:42;6.00;99.90
59146;DHT22;44928;53.074;6.646;2022-11-27T02:07:08;6.00;99.90
59146;DHT22;44928;53.074;6.646;2022-11-27T02:09:34;6.00;99.90
59146;DHT22;44928;53.074;6.646;2022-11-27T02:26:04;6.00;99.90
59146;DHT22;44928;53.074;6.646;2022-11-27T02:30:54;5.90;99.90
59146;DHT22;44928;53.074;6.646;2022-11-27T02:33:22;6.00;99.90
59146;DHT22;44928;53.074;6.646;2022-11-27T02:35:54;5.90;99.90
59146;DHT22;44928;53.074;6.646;2022-11-27T02:38:28;6.00;99.90
59146;DHT22;44928;53.074;6.646;2022-11-27T02:40:56;5.90;99.90
59146;DHT22;44928;53.074;6.646;2022-11-27T02:43:33;6.00;99.90
59146;DHT22;44928;53.074;6.646;2022-11-27T02:46:02;6.00;99.90
59146;DHT22;44928;53.074;6.646;2022-11-27T02:49:03;6.00;99.90
59146;DHT22;44928;53.074;6.646;2022-11-27T02:51:48;6.00;99.90
59146;DHT22;44928;53.074;6.646;2022-11-27T02:54:20;6.00;99.90
59146;DHT22;44928;53.074;6.646;2022-11-27T02:56:49;6.00;99.90
59146;DHT22;44928;53.074;6.646;2022-11-27T02:59:17;6.00;99.90
59146;DHT22;44928;53.074;6.646;2022-11-27T03:01:48;6.00;99.90
59146;DHT22;44928;53.074;6.646;2022-11-27T03:04:19;6.10;99.90
59146;DHT22;44928;53.074;6.646;2022-11-27T03:06:51;6.10;99.90
59146;DHT22;44928;53.074;6.646;2022-11-27T03:09:41;6.10;99.90
59146;DHT22;44928;53.074;6.646;2022-11-27T03:12:09;6.10;99.90
59146;DHT22;44928;53.074;6.646;2022-11-27T03:14:36;6.10;99.90
59146;DHT22;44928;53.074;6.646;2022-11-27T03:20:08;6.10;99.90
59146;DHT22;44928;53.074;6.646;2022-11-27T03:22:35;6.20;99.90
59146;DHT22;44928;53.074;6.646;2022-11-27T03:25:01;6.10;99.90
59146;DHT22;44928;53.074;6.646;2022-11-27T03:27:34;6.10;99.90
59146;DHT22;44928;53.074;6.646;2022-11-27T03:30:05;6.10;99.90
59146;DHT22;44928;53.074;6.646;2022-11-27T03:32:32;6.10;99.90
59146;DHT22;44928;53.074;6.646;2022-11-27T03:34:59;6.10;99.90
59146;DHT22;44928;53.074;6.646;2022-11-27T03:37:25;6.10;99.90
59146;DHT22;44928;53.074;6.646;2022-11-27T03:39:52;6.10;99.90
59146;DHT22;44928;53.074;6.646;2022-11-27T03:58:37;6.10;99.90
59146;DHT22;44928;53.074;6.646;2022-11-27T04:01:07;6.10;99.90
59146;DHT22;44928;53.074;6.646;2022-11-27T04:03:34;6.10;99.90
59146;DHT22;44928;53.074;6.646;2022-11-27T04:06:01;6.10;99.90
59146;DHT22;44928;53.074;6.646;2022-11-27T04:08:26;6.10;99.90
59146;DHT22;44928;53.074;6.646;2022-11-27T04:10:52;6.10;99.90
59146;DHT22;44928;53.074;6.646;2022-11-27T04:13:18;6.10;99.90
59146;DHT22;44928;53.074;6.646;2022-11-27T04:15:44;6.10;99.90
59146;DHT22;44928;53.074;6.646;2022-11-27T04:18:10;6.10;99.90
59146;DHT22;44928;53.074;6.646;2022-11-27T04:20:36;6.10;99.90
59146;DHT22;44928;53.074;6.646;2022-11-27T04:23:02;6.10;99.90
59146;DHT22;44928;53.074;6.646;2022-11-27T04:25:27;6.00;99.90
59146;DHT22;44928;53.074;6.646;2022-11-27T04:27:53;6.00;99.90
59146;DHT22;44928;53.074;6.646;2022-11-27T04:30:19;6.00;99.90
59146;DHT22;44928;53.074;6.646;2022-11-27T04:32:45;6.00;99.90
59146;DHT22;44928;53.074;6.646;2022-11-27T04:35:11;6.00;99.90
59146;DHT22;44928;53.074;6.646;2022-11-27T04:37:36;6.00;99.90
59146;DHT22;44928;53.074;6.646;2022-11-27T04:40:03;5.90;99.90
59146;DHT22;44928;53.074;6.646;2022-11-27T04:42:29;5.90;99.90
59146;DHT22;44928;53.074;6.646;2022-11-27T04:44:55;5.90;99.90
59146;DHT22;44928;53.074;6.646;2022-11-27T04:47:21;5.90;99.90
59146;DHT22;44928;53.074;6.646;2022-11-27T04:49:46;5.90;99.90
59146;DHT22;44928;53.074;6.646;2022-11-27T04:52:12;5.90;99.90
59146;DHT22;44928;53.074;6.646;2022-11-27T04:54:38;5.80;99.90
59146;DHT22;44928;53.074;6.646;2022-11-27T04:57:04;5.90;99.90
59146;DHT22;44928;53.074;6.646;2022-11-27T04:59:29;5.90;99.90
59146;DHT22;44928;53.074;6.646;2022-11-27T05:01:55;5.90;99.90
59146;DHT22;44928;53.074;6.646;2022-11-27T05:04:21;5.90;99.90
59146;DHT22;44928;53.074;6.646;2022-11-27T05:06:47;5.90;99.90
59146;DHT22;44928;53.074;6.646;2022-11-27T05:09:13;5.80;99.90
59146;DHT22;44928;53.074;6.646;2022-11-27T05:11:39;5.90;99.90
59146;DHT22;44928;53.074;6.646;2022-11-27T05:14:04;5.80;99.90
59146;DHT22;44928;53.074;6.646;2022-11-27T05:19:11;5.80;99.90
59146;DHT22;44928;53.074;6.646;2022-11-27T05:21:37;5.80;99.90
59146;DHT22;44928;53.074;6.646;2022-11-27T05:24:03;5.80;99.90
59146;DHT22;44928;53.074;6.646;2022-11-27T05:26:29;5.80;99.90
59146;DHT22;44928;53.074;6.646;2022-11-27T05:28:55;5.80;99.90
59146;DHT22;44928;53.074;6.646;2022-11-27T05:31:21;5.80;99.90
59146;DHT22;44928;53.074;6.646;2022-11-27T05:33:47;5.80;99.90
59146;DHT22;44928;53.074;6.646;2022-11-27T05:36:12;5.80;99.90
59146;DHT22;44928;53.074;6.646;2022-11-27T05:38:39;5.70;99.90
59146;DHT22;44928;53.074;6.646;2022-11-27T05:41:04;5.80;99.90
59146;DHT22;44928;53.074;6.646;2022-11-27T05:43:30;5.80;99.90
59146;DHT22;44928;53.074;6.646;2022-11-27T05:45:56;5.80;99.90
59146;DHT22;44928;53.074;6.646;2022-11-27T05:48:22;5.80;99.90
59146;DHT22;44928;53.074;6.646;2022-11-27T05:50:48;5.80;99.90
59146;DHT22;44928;53.074;6.646;2022-11-27T05:53:13;5.80;99.90
59146;DHT22;44928;53.074;6.646;2022-11-27T05:55:39;5.80;99.90
59146;DHT22;44928;53.074;6.646;2022-11-27T05:58:05;5.70;99.90
59146;DHT22;44928;53.074;6.646;2022-11-27T06:00:31;5.80;99.90
59146;DHT22;44928;53.074;6.646;2022-11-27T06:02:56;5.80;99.90
59146;DHT22;44928;53.074;6.646;2022-11-27T06:05:22;5.70;99.90
59146;DHT22;44928;53.074;6.646;2022-11-27T06:07:48;5.80;99.90
59146;DHT22;44928;53.074;6.646;2022-11-27T06:10:14;5.80;99.90
59146;DHT22;44928;53.074;6.646;2022-11-27T06:12:40;5.80;99.90
59146;DHT22;44928;53.074;6.646;2022-11-27T06:15:06;5.80;99.90
59146;DHT22;44928;53.074;6.646;2022-11-27T06:17:32;5.80;99.90
59146;DHT22;44928;53.074;6.646;2022-11-27T06:19:57;5.80;99.90
59146;DHT22;44928;53.074;6.646;2022-11-27T06:22:23;5.80;99.90
59146;DHT22;44928;53.074;6.646;2022-11-27T06:24:49;5.80;99.90
59146;DHT22;44928;53.074;6.646;2022-11-27T06:27:15;5.80;99.90
59146;DHT22;44928;53.074;6.646;2022-11-27T06:29:41;5.80;99.90
59146;DHT22;44928;53.074;6.646;2022-11-27T06:32:07;5.80;99.90
59146;DHT22;44928;53.074;6.646;2022-11-27T06:34:32;5.80;99.90
59146;DHT22;44928;53.074;6.646;2022-11-27T06:36:58;5.80;99.90
59146;DHT22;44928;53.074;6.646;2022-11-27T06:39:24;5.80;99.90
59146;DHT22;44928;53.074;6.646;2022-11-27T06:41:50;5.80;99.90
59146;DHT22;44928;53.074;6.646;2022-11-27T06:44:16;5.80;99.90
59146;DHT22;44928;53.074;6.646;2022-11-27T06:46:41;5.80;99.90
59146;DHT22;44928;53.074;6.646;2022-11-27T06:49:08;5.80;99.90
59146;DHT22;44928;53.074;6.646;2022-11-27T06:51:34;5.80;99.90
59146;DHT22;44928;53.074;6.646;2022-11-27T06:54:00;5.80;99.90
59146;DHT22;44928;53.074;6.646;2022-11-27T06:56:28;5.80;99.90
59146;DHT22;44928;53.074;6.646;2022-11-27T06:58:57;5.80;99.90
59146;DHT22;44928;53.074;6.646;2022-11-27T07:01:26;5.80;99.90
59146;DHT22;44928;53.074;6.646;2022-11-27T07:03:52;5.80;99.90
59146;DHT22;44928;53.074;6.646;2022-11-27T07:06:20;5.80;99.90
59146;DHT22;44928;53.074;6.646;2022-11-27T07:08:47;5.80;99.90
59146;DHT22;44928;53.074;6.646;2022-11-27T07:11:15;5.90;99.90
59146;DHT22;44928;53.074;6.646;2022-11-27T07:13:46;5.90;99.90
59146;DHT22;44928;53.074;6.646;2022-11-27T07:16:13;5.90;99.90
59146;DHT22;44928;53.074;6.646;2022-11-27T07:18:42;5.90;99.90
59146;DHT22;44928;53.074;6.646;2022-11-27T07:21:08;5.90;99.90
59146;DHT22;44928;53.074;6.646;2022-11-27T07:23:35;5.90;99.90
59146;DHT22;44928;53.074;6.646;2022-11-27T07:26:16;5.90;99.90
59146;DHT22;44928;53.074;6.646;2022-11-27T07:28:42;5.90;99.90
59146;DHT22;44928;53.074;6.646;2022-11-27T07:31:08;5.90;99.90
59146;DHT22;44928;53.074;6.646;2022-11-27T07:33:34;6.00;99.90
59146;DHT22;44928;53.074;6.646;2022-11-27T07:36:05;6.00;99.90
59146;DHT22;44928;53.074;6.646;2022-11-27T07:38:32;6.00;99.90
59146;DHT22;44928;53.074;6.646;2022-11-27T07:41:02;6.00;99.90
59146;DHT22;44928;53.074;6.646;2022-11-27T07:43:29;6.00;99.90
59146;DHT22;44928;53.074;6.646;2022-11-27T07:45:55;6.00;99.90
59146;DHT22;44928;53.074;6.646;2022-11-27T07:48:21;6.00;99.90
59146;DHT22;44928;53.074;6.646;2022-11-27T07:50:47;6.00;99.90
59146;DHT22;44928;53.074;6.646;2022-11-27T07:53:13;6.00;99.90
59146;DHT22;44928;53.074;6.646;2022-11-27T07:55:40;6.00;99.90
59146;DHT22;44928;53.074;6.646;2022-11-27T07:58:07;6.00;99.90
59146;DHT22;44928;53.074;6.646;2022-11-27T08:00:33;6.00;99.90
59146;DHT22;44928;53.074;6.646;2022-11-27T08:03:00;6.00;99.90
59146;DHT22;44928;53.074;6.646;2022-11-27T08:05:26;6.00;99.90
59146;DHT22;44928;53.074;6.646;2022-11-27T08:07:52;6.00;99.90
59146;DHT22;44928;53.074;6.646;2022-11-27T08:10:18;6.00;99.90
59146;DHT22;44928;53.074;6.646;2022-11-27T08:12:44;6.10;99.90
59146;DHT22;44928;53.074;6.646;2022-11-27T08:15:10;6.10;99.90
59146;DHT22;44928;53.074;6.646;2022-11-27T08:17:36;6.10;99.90
59146;DHT22;44928;53.074;6.646;2022-11-27T08:20:03;6.10;99.90
59146;DHT22;44928;53.074;6.646;2022-11-27T08:22:28;6.10;99.90
59146;DHT22;44928;53.074;6.646;2022-11-27T08:24:54;6.10;99.90
59146;DHT22;44928;53.074;6.646;2022-11-27T08:27:20;6.20;99.90
59146;DHT22;44928;53.074;6.646;2022-11-27T08:29:46;6.20;99.90
59146;DHT22;44928;53.074;6.646;2022-11-27T08:32:12;6.20;99.90
59146;DHT22;44928;53.074;6.646;2022-11-27T08:34:38;6.20;99.90
59146;DHT22;44928;53.074;6.646;2022-11-27T08:37:04;6.30;99.90
59146;DHT22;44928;53.074;6.646;2022-11-27T08:39:30;6.30;99.90
59146;DHT22;44928;53.074;6.646;2022-11-27T08:41:56;6.30;99.90
59146;DHT22;44928;53.074;6.646;2022-11-27T08:44:22;6.30;99.90
59146;DHT22;44928;53.074;6.646;2022-11-27T08:46:47;6.30;99.90
59146;DHT22;44928;53.074;6.646;2022-11-27T08:49:13;6.30;99.90
59146;DHT22;44928;53.074;6.646;2022-11-27T08:51:39;6.30;99.90
59146;DHT22;44928;53.074;6.646;2022-11-27T08:54:05;6.30;99.90
59146;DHT22;44928;53.074;6.646;2022-11-27T08:56:30;6.30;99.90
59146;DHT22;44928;53.074;6.646;2022-11-27T08:58:56;6.30;99.90
59146;DHT22;44928;53.074;6.646;2022-11-27T09:01:24;6.30;99.90
59146;DHT22;44928;53.074;6.646;2022-11-27T09:03:50;6.30;99.90
59146;DHT22;44928;53.074;6.646;2022-11-27T09:06:20;6.30;99.90
59146;DHT22;44928;53.074;6.646;2022-11-27T09:08:47;6.30;99.90
59146;DHT22;44928;53.074;6.646;2022-11-27T09:11:14;6.30;99.90
59146;DHT22;44928;53.074;6.646;2022-11-27T09:13:41;6.30;99.90
59146;DHT22;44928;53.074;6.646;2022-11-27T09:16:11;6.30;99.90
59146;DHT22;44928;53.074;6.646;2022-11-27T09:18:37;6.30;99.90
59146;DHT22;44928;53.074;6.646;2022-11-27T09:21:07;6.30;99.90
59146;DHT22;44928;53.074;6.646;2022-11-27T09:23:33;6.30;99.90
59146;DHT22;44928;53.074;6.646;2022-11-27T09:26:00;6.40;99.90
59146;DHT22;44928;53.074;6.646;2022-11-27T09:28:27;6.40;99.90
59146;DHT22;44928;53.074;6.646;2022-11-27T09:30:57;6.40;99.90
59146;DHT22;44928;53.074;6.646;2022-11-27T09:33:24;6.40;99.90
59146;DHT22;44928;53.074;6.646;2022-11-27T09:35:51;6.40;99.90
59146;DHT22;44928;53.074;6.646;2022-11-27T09:38:16;6.40;99.90
59146;DHT22;44928;53.074;6.646;2022-11-27T09:40:48;6.40;99.90
59146;DHT22;44928;53.074;6.646;2022-11-27T09:43:15;6.40;99.90
59146;DHT22;44928;53.074;6.646;2022-11-27T09:45:48;6.40;99.90
59146;DHT22;44928;53.074;6.646;2022-11-27T09:48:24;6.40;99.90
59146;DHT22;44928;53.074;6.646;2022-11-27T09:50:53;6.40;99.90
59146;DHT22;44928;53.074;6.646;2022-11-27T09:53:46;6.40;99.90
59146;DHT22;44928;53.074;6.646;2022-11-27T09:56:16;6.40;99.90
59146;DHT22;44928;53.074;6.646;2022-11-27T09:58:57;6.40;99.90
59146;DHT22;44928;53.074;6.646;2022-11-27T10:01:29;6.40;99.90
59146;DHT22;44928;53.074;6.646;2022-11-27T10:03:55;6.40;99.90
59146;DHT22;44928;53.074;6.646;2022-11-27T10:06:36;6.40;99.90
59146;DHT22;44928;53.074;6.646;2022-11-27T10:12:16;6.40;99.90
59146;DHT22;44928;53.074;6.646;2022-11-27T10:17:19;6.40;99.90
59146;DHT22;44928;53.074;6.646;2022-11-27T10:25:16;6.40;99.90
59146;DHT22;44928;53.074;6.646;2022-11-27T10:30:20;6.30;99.90
59146;DHT22;44928;53.074;6.646;2022-11-27T10:32:49;6.30;99.90
59146;DHT22;44928;53.074;6.646;2022-11-27T10:35:19;6.30;99.90
59146;DHT22;44928;53.074;6.646;2022-11-27T10:40:26;6.30;99.90
59146;DHT22;44928;53.074;6.646;2022-11-27T10:45:35;6.30;99.90
59146;DHT22;44928;53.074;6.646;2022-11-27T10:48:02;6.30;99.90
59146;DHT22;44928;53.074;6.646;2022-11-27T10:50:28;6.30;99.90
59146;DHT22;44928;53.074;6.646;2022-11-27T10:53:03;6.20;99.90
59146;DHT22;44928;53.074;6.646;2022-11-27T10:58:35;6.20;99.90
59146;DHT22;44928;53.074;6.646;2022-11-27T11:01:12;6.20;99.90
59146;DHT22;44928;53.074;6.646;2022-11-27T11:03:38;6.20;99.90
59146;DHT22;44928;53.074;6.646;2022-11-27T11:06:15;6.20;99.90
59146;DHT22;44928;53.074;6.646;2022-11-27T11:08:43;6.20;99.90
59146;DHT22;44928;53.074;6.646;2022-11-27T11:11:12;6.20;99.90
59146;DHT22;44928;53.074;6.646;2022-11-27T11:13:44;6.20;99.90
59146;DHT22;44928;53.074;6.646;2022-11-27T11:16:17;6.20;99.90
59146;DHT22;44928;53.074;6.646;2022-11-27T11:18:47;6.20;99.90
59146;DHT22;44928;53.074;6.646;2022-11-27T11:21:41;6.20;99.90
59146;DHT22;44928;53.074;6.646;2022-11-27T11:24:17;6.20;99.90
59146;DHT22;44928;53.074;6.646;2022-11-27T11:26:48;6.20;99.90
59146;DHT22;44928;53.074;6.646;2022-11-27T11:29:50;6.20;99.90
59146;DHT22;44928;53.074;6.646;2022-11-27T11:34:56;6.20;99.90
59146;DHT22;44928;53.074;6.646;2022-11-27T11:37:29;6.20;99.90
59146;DHT22;44928;53.074;6.646;2022-11-27T11:40:05;6.20;99.90
59146;DHT22;44928;53.074;6.646;2022-11-27T11:42:35;6.20;99.90
59146;DHT22;44928;53.074;6.646;2022-11-27T11:45:15;6.20;99.90
59146;DHT22;44928;53.074;6.646;2022-11-27T11:47:46;6.20;99.90
59146;DHT22;44928;53.074;6.646;2022-11-27T11:50:15;6.20;99.90
59146;DHT22;44928;53.074;6.646;2022-11-27T11:55:51;6.20;99.90
59146;DHT22;44928;53.074;6.646;2022-11-27T11:58:35;6.20;99.90
59146;DHT22;44928;53.074;6.646;2022-11-27T12:03:50;6.20;99.90
59146;DHT22;44928;53.074;6.646;2022-11-27T12:09:02;6.20;99.90
59146;DHT22;44928;53.074;6.646;2022-11-27T12:28:00;6.30;99.90
59146;DHT22;44928;53.074;6.646;2022-11-27T12:31:04;6.30;99.90
59146;DHT22;44928;53.074;6.646;2022-11-27T12:46:59;6.40;99.90
59146;DHT22;44928;53.074;6.646;2022-11-27T12:49:46;6.40;99.90
59146;DHT22;44928;53.074;6.646;2022-11-27T12:52:14;6.30;99.90
59146;DHT22;44928;53.074;6.646;2022-11-27T12:54:50;6.40;99.90
59146;DHT22;44928;53.074;6.646;2022-11-27T12:57:21;6.40;99.90
59146;DHT22;44928;53.074;6.646;2022-11-27T12:59:55;6.40;99.90
59146;DHT22;44928;53.074;6.646;2022-11-27T13:02:40;6.40;99.90
59146;DHT22;44928;53.074;6.646;2022-11-27T13:05:22;6.40;99.90
59146;DHT22;44928;53.074;6.646;2022-11-27T13:16:35;6.40;99.90
59146;DHT22;44928;53.074;6.646;2022-11-27T13:21:32;6.40;99.90
59146;DHT22;44928;53.074;6.646;2022-11-27T13:24:00;6.40;99.90
59146;DHT22;44928;53.074;6.646;2022-11-27T13:26:50;6.40;99.90
59146;DHT22;44928;53.074;6.646;2022-11-27T13:29:31;6.40;99.90
59146;DHT22;44928;53.074;6.646;2022-11-27T13:32:01;6.40;99.90
59146;DHT22;44928;53.074;6.646;2022-11-27T13:34:29;6.40;99.90
59146;DHT22;44928;53.074;6.646;2022-11-27T13:39:26;6.40;99.90
59146;DHT22;44928;53.074;6.646;2022-11-27T13:42:16;6.40;99.90
59146;DHT22;44928;53.074;6.646;2022-11-27T13:44:51;6.40;99.90
59146;DHT22;44928;53.074;6.646;2022-11-27T13:47:20;6.40;99.90
59146;DHT22;44928;53.074;6.646;2022-11-27T13:50:01;6.40;99.90
59146;DHT22;44928;53.074;6.646;2022-11-27T13:52:27;6.40;99.90
59146;DHT22;44928;53.074;6.646;2022-11-27T13:55:03;6.40;99.90
59146;DHT22;44928;53.074;6.646;2022-11-27T13:57:30;6.40;99.90
59146;DHT22;44928;53.074;6.646;2022-11-27T14:00:05;6.40;99.90
59146;DHT22;44928;53.074;6.646;2022-11-27T14:02:46;6.40;99.90
59146;DHT22;44928;53.074;6.646;2022-11-27T14:05:14;6.40;99.90
59146;DHT22;44928;53.074;6.646;2022-11-27T14:07:43;6.40;99.90
59146;DHT22;44928;53.074;6.646;2022-11-27T14:10:33;6.40;99.90
59146;DHT22;44928;53.074;6.646;2022-11-27T14:15:28;6.40;99.90
59146;DHT22;44928;53.074;6.646;2022-11-27T14:18:18;6.40;99.90
59146;DHT22;44928;53.074;6.646;2022-11-27T14:21:05;6.40;99.90
59146;DHT22;44928;53.074;6.646;2022-11-27T14:23:32;6.40;99.90
59146;DHT22;44928;53.074;6.646;2022-11-27T14:28:42;6.40;99.90
59146;DHT22;44928;53.074;6.646;2022-11-27T14:31:31;6.40;99.90
59146;DHT22;44928;53.074;6.646;2022-11-27T14:33:58;6.40;99.90
59146;DHT22;44928;53.074;6.646;2022-11-27T14:36:33;6.40;99.90
59146;DHT22;44928;53.074;6.646;2022-11-27T14:39:01;6.40;99.90
59146;DHT22;44928;53.074;6.646;2022-11-27T14:41:28;6.40;99.90
59146;DHT22;44928;53.074;6.646;2022-11-27T14:44:00;6.30;99.90
59146;DHT22;44928;53.074;6.646;2022-11-27T14:46:27;6.40;99.90
59146;DHT22;44928;53.074;6.646;2022-11-27T14:48:54;6.30;99.90
59146;DHT22;44928;53.074;6.646;2022-11-27T14:51:26;6.30;99.90
59146;DHT22;44928;53.074;6.646;2022-11-27T14:54:04;6.30;99.90
59146;DHT22;44928;53.074;6.646;2022-11-27T14:56:34;6.30;99.90
59146;DHT22;44928;53.074;6.646;2022-11-27T14:59:01;6.30;99.90
59146;DHT22;44928;53.074;6.646;2022-11-27T15:01:30;6.30;99.90
59146;DHT22;44928;53.074;6.646;2022-11-27T15:03:58;6.30;99.90
59146;DHT22;44928;53.074;6.646;2022-11-27T15:06:26;6.30;99.90
59146;DHT22;44928;53.074;6.646;2022-11-27T15:08:54;6.30;99.90
59146;DHT22;44928;53.074;6.646;2022-11-27T15:11:21;6.30;99.90
59146;DHT22;44928;53.074;6.646;2022-11-27T15:13:55;6.30;99.90
59146;DHT22;44928;53.074;6.646;2022-11-27T15:16:23;6.30;99.90
59146;DHT22;44928;53.074;6.646;2022-11-27T15:18:56;6.40;99.90
59146;DHT22;44928;53.074;6.646;2022-11-27T15:21:24;6.30;99.90
59146;DHT22;44928;53.074;6.646;2022-11-27T15:23:51;6.30;99.90
59146;DHT22;44928;53.074;6.646;2022-11-27T15:26:37;6.30;99.90
59146;DHT22;44928;53.074;6.646;2022-11-27T15:29:34;6.30;99.90
59146;DHT22;44928;53.074;6.646;2022-11-27T15:32:03;6.30;99.90
59146;DHT22;44928;53.074;6.646;2022-11-27T15:34:39;6.30;99.90
59146;DHT22;44928;53.074;6.646;2022-11-27T15:37:21;6.30;99.90
59146;DHT22;44928;53.074;6.646;2022-11-27T15:42:18;6.30;99.90
59146;DHT22;44928;53.074;6.646;2022-11-27T15:44:45;6.30;99.90
59146;DHT22;44928;53.074;6.646;2022-11-27T15:47:34;6.40;99.90
59146;DHT22;44928;53.074;6.646;2022-11-27T15:50:00;6.40;99.90
59146;DHT22;44928;53.074;6.646;2022-11-27T15:52:27;6.40;99.90
59146;DHT22;44928;53.074;6.646;2022-11-27T15:54:53;6.40;99.90
59146;DHT22;44928;53.074;6.646;2022-11-27T15:57:21;6.40;99.90
59146;DHT22;44928;53.074;6.646;2022-11-27T15:59:46;6.40;99.90
59146;DHT22;44928;53.074;6.646;2022-11-27T16:02:12;6.40;99.90
59146;DHT22;44928;53.074;6.646;2022-11-27T16:04:38;6.40;99.90
59146;DHT22;44928;53.074;6.646;2022-11-27T16:07:05;6.40;99.90
59146;DHT22;44928;53.074;6.646;2022-11-27T16:09:30;6.40;99.90
59146;DHT22;44928;53.074;6.646;2022-11-27T16:11:56;6.40;99.90
59146;DHT22;44928;53.074;6.646;2022-11-27T16:14:22;6.40;99.90
59146;DHT22;44928;53.074;6.646;2022-11-27T16:16:48;6.40;99.90
59146;DHT22;44928;53.074;6.646;2022-11-27T16:19:14;6.40;99.90
59146;DHT22;44928;53.074;6.646;2022-11-27T16:21:41;6.50;99.90
59146;DHT22;44928;53.074;6.646;2022-11-27T16:24:10;6.50;99.90
59146;DHT22;44928;53.074;6.646;2022-11-27T16:26:37;6.50;99.90
59146;DHT22;44928;53.074;6.646;2022-11-27T16:29:04;6.50;99.90
59146;DHT22;44928;53.074;6.646;2022-11-27T16:31:30;6.50;99.90
59146;DHT22;44928;53.074;6.646;2022-11-27T16:33:55;6.50;99.90
59146;DHT22;44928;53.074;6.646;2022-11-27T16:36:22;6.50;99.90
59146;DHT22;44928;53.074;6.646;2022-11-27T16:38:50;6.50;99.90
59146;DHT22;44928;53.074;6.646;2022-11-27T16:41:17;6.50;99.90
59146;DHT22;44928;53.074;6.646;2022-11-27T16:43:46;6.50;99.90
59146;DHT22;44928;53.074;6.646;2022-11-27T16:46:14;6.50;99.90
59146;DHT22;44928;53.074;6.646;2022-11-27T16:48:41;6.50;99.90
59146;DHT22;44928;53.074;6.646;2022-11-27T16:51:10;6.50;99.90
59146;DHT22;44928;53.074;6.646;2022-11-27T16:53:38;6.50;99.90
59146;DHT22;44928;53.074;6.646;2022-11-27T16:56:06;6.50;99.90
59146;DHT22;44928;53.074;6.646;2022-11-27T16:58:34;6.50;99.90
59146;DHT22;44928;53.074;6.646;2022-11-27T17:01:03;6.40;99.90
59146;DHT22;44928;53.074;6.646;2022-11-27T17:03:30;6.40;99.90
59146;DHT22;44928;53.074;6.646;2022-11-27T17:05:55;6.40;99.90
59146;DHT22;44928;53.074;6.646;2022-11-27T17:08:23;6.50;99.90
59146;DHT22;44928;53.074;6.646;2022-11-27T17:10:49;6.50;99.90
59146;DHT22;44928;53.074;6.646;2022-11-27T17:13:15;6.40;99.90
59146;DHT22;44928;53.074;6.646;2022-11-27T17:15:42;6.40;99.90
59146;DHT22;44928;53.074;6.646;2022-11-27T17:18:09;6.50;99.90
59146;DHT22;44928;53.074;6.646;2022-11-27T17:20:35;6.50;99.90
59146;DHT22;44928;53.074;6.646;2022-11-27T17:23:01;6.50;99.90
59146;DHT22;44928;53.074;6.646;2022-11-27T17:25:29;6.50;99.90
59146;DHT22;44928;53.074;6.646;2022-11-27T17:27:54;6.50;99.90
59146;DHT22;44928;53.074;6.646;2022-11-27T17:30:20;6.50;99.90
59146;DHT22;44928;53.074;6.646;2022-11-27T17:32:46;6.50;99.90
59146;DHT22;44928;53.074;6.646;2022-11-27T17:35:12;6.50;99.90
59146;DHT22;44928;53.074;6.646;2022-11-27T17:37:37;6.50;99.90
59146;DHT22;44928;53.074;6.646;2022-11-27T17:40:04;6.50;99.90
59146;DHT22;44928;53.074;6.646;2022-11-27T17:42:30;6.50;99.90
59146;DHT22;44928;53.074;6.646;2022-11-27T17:44:55;6.50;99.90
59146;DHT22;44928;53.074;6.646;2022-11-27T17:47:21;6.50;99.90
59146;DHT22;44928;53.074;6.646;2022-11-27T17:49:47;6.50;99.90
59146;DHT22;44928;53.074;6.646;2022-11-27T17:52:13;6.50;99.90
59146;DHT22;44928;53.074;6.646;2022-11-27T17:54:38;6.50;99.90
59146;DHT22;44928;53.074;6.646;2022-11-27T17:57:04;6.50;99.90
59146;DHT22;44928;53.074;6.646;2022-11-27T17:59:30;6.50;99.90
59146;DHT22;44928;53.074;6.646;2022-11-27T18:01:55;6.50;99.90
59146;DHT22;44928;53.074;6.646;2022-11-27T18:04:21;6.50;99.90